sensor_id;sensor_type;location;lat;lon;timestamp;pressure;altitude;pressure_sealevel;temperature;humidity
72677;BME280;60755;51.374;10.662;2024-03-07T00:00:10;98008.72;;;2.25;94.00
72677;BME280;60755;51.374;10.662;2024-03-07T00:02:42;98011.78;;;2.29;93.78
72677;BME280;60755;51.374;10.662;2024-03-07T00:05:09;98004.31;;;2.34;93.87
72677;BME280;60755;51.374;10.662;2024-03-07T00:07:36;98007.91;;;2.33;95.40
72677;BME280;60755;51.374;10.662;2024-03-07T00:10:03;98003.16;;;2.52;95.09
72677;BME280;60755;51.374;10.662;2024-03-07T00:12:34;98007.19;;;2.55;93.01
72677;BME280;60755;51.374;10.662;2024-03-07T00:15:02;98004.81;;;2.29;92.90
72677;BME280;60755;51.374;10.662;2024-03-07T00:17:29;98002.38;;;2.19;94.37
72677;BME280;60755;51.374;10.662;2024-03-07T00:19:57;97999.78;;;1.95;95.14
72677;BME280;60755;51.374;10.662;2024-03-07T00:22:24;97998.47;;;1.99;94.58
72677;BME280;60755;51.374;10.662;2024-03-07T00:24:52;97993.97;;;2.09;94.20
72677;BME280;60755;51.374;10.662;2024-03-07T00:27:19;97999.78;;;2.36;92.81
72677;BME280;60755;51.374;10.662;2024-03-07T00:29:48;98005.28;;;2.49;93.90
72677;BME280;60755;51.374;10.662;2024-03-07T00:32:19;98004.75;;;2.62;91.38
72677;BME280;60755;51.374;10.662;2024-03-07T00:34:46;98005.94;;;2.35;94.43
72677;BME280;60755;51.374;10.662;2024-03-07T00:37:13;98001.72;;;2.42;94.34
72677;BME280;60755;51.374;10.662;2024-03-07T00:39:41;98004.31;;;2.34;93.61
72677;BME280;60755;51.374;10.662;2024-03-07T00:42:08;97995.03;;;2.47;93.08
72677;BME280;60755;51.374;10.662;2024-03-07T00:44:36;97997.44;;;2.73;91.49
72677;BME280;60755;51.374;10.662;2024-03-07T00:47:04;97993.88;;;2.74;92.04
72677;BME280;60755;51.374;10.662;2024-03-07T00:49:31;97991.88;;;2.93;91.11
72677;BME280;60755;51.374;10.662;2024-03-07T00:51:58;97998.16;;;3.06;89.68
72677;BME280;60755;51.374;10.662;2024-03-07T00:54:26;97992.09;;;3.22;88.46
72677;BME280;60755;51.374;10.662;2024-03-07T00:56:53;97990.09;;;3.32;88.14
72677;BME280;60755;51.374;10.662;2024-03-07T00:59:20;97982.00;;;3.27;87.74
72677;BME280;60755;51.374;10.662;2024-03-07T01:01:48;97986.28;;;3.12;88.86
72677;BME280;60755;51.374;10.662;2024-03-07T01:04:17;97982.16;;;3.26;89.35
72677;BME280;60755;51.374;10.662;2024-03-07T01:06:44;97981.56;;;3.16;89.24
72677;BME280;60755;51.374;10.662;2024-03-07T01:09:11;97978.75;;;3.25;87.96
72677;BME280;60755;51.374;10.662;2024-03-07T01:11:43;97971.31;;;3.22;87.69
72677;BME280;60755;51.374;10.662;2024-03-07T01:14:10;97976.00;;;3.27;86.56
72677;BME280;60755;51.374;10.662;2024-03-07T01:16:37;97972.72;;;3.33;87.33
72677;BME280;60755;51.374;10.662;2024-03-07T01:19:04;97965.06;;;3.40;86.47
72677;BME280;60755;51.374;10.662;2024-03-07T01:21:34;97975.44;;;3.40;87.08
72677;BME280;60755;51.374;10.662;2024-03-07T01:24:01;97969.03;;;3.50;87.24
72677;BME280;60755;51.374;10.662;2024-03-07T01:26:28;97972.19;;;3.46;86.30
72677;BME280;60755;51.374;10.662;2024-03-07T01:28:56;97966.16;;;3.68;85.06
72677;BME280;60755;51.374;10.662;2024-03-07T01:31:24;97963.63;;;3.60;85.74
72677;BME280;60755;51.374;10.662;2024-03-07T01:33:51;97970.16;;;3.56;85.44
72677;BME280;60755;51.374;10.662;2024-03-07T01:36:19;97976.63;;;3.60;86.14
72677;BME280;60755;51.374;10.662;2024-03-07T01:38:47;97967.56;;;3.56;84.97
72677;BME280;60755;51.374;10.662;2024-03-07T01:41:14;97967.47;;;3.72;84.46
72677;BME280;60755;51.374;10.662;2024-03-07T01:43:41;97971.63;;;3.81;83.67
72677;BME280;60755;51.374;10.662;2024-03-07T01:46:09;97978.03;;;3.71;83.52
72677;BME280;60755;51.374;10.662;2024-03-07T01:48:37;97967.09;;;3.75;84.13
72677;BME280;60755;51.374;10.662;2024-03-07T01:51:06;97968.66;;;3.84;83.98
72677;BME280;60755;51.374;10.662;2024-03-07T01:53:34;97972.28;;;3.75;84.33
72677;BME280;60755;51.374;10.662;2024-03-07T01:56:02;97965.22;;;3.69;84.98
72677;BME280;60755;51.374;10.662;2024-03-07T01:58:30;97957.38;;;3.92;83.11
72677;BME280;60755;51.374;10.662;2024-03-07T02:00:57;97959.84;;;3.93;82.97
72677;BME280;60755;51.374;10.662;2024-03-07T02:03:25;97961.66;;;3.85;83.48
72677;BME280;60755;51.374;10.662;2024-03-07T02:05:52;97958.50;;;3.98;82.80
72677;BME280;60755;51.374;10.662;2024-03-07T02:08:19;97956.31;;;3.86;83.60
72677;BME280;60755;51.374;10.662;2024-03-07T02:10:46;97951.25;;;4.08;82.30
72677;BME280;60755;51.374;10.662;2024-03-07T02:13:15;97949.16;;;3.88;83.50
72677;BME280;60755;51.374;10.662;2024-03-07T02:15:43;97944.47;;;3.84;83.57
72677;BME280;60755;51.374;10.662;2024-03-07T02:18:10;97940.66;;;3.95;83.03
72677;BME280;60755;51.374;10.662;2024-03-07T02:20:37;97943.19;;;4.03;82.57
72677;BME280;60755;51.374;10.662;2024-03-07T02:23:07;97940.59;;;4.03;81.89
72677;BME280;60755;51.374;10.662;2024-03-07T02:25:33;97929.66;;;3.84;82.45
72677;BME280;60755;51.374;10.662;2024-03-07T02:28:03;97931.19;;;4.02;83.27
72677;BME280;60755;51.374;10.662;2024-03-07T02:30:31;97934.59;;;4.17;81.74
72677;BME280;60755;51.374;10.662;2024-03-07T02:32:58;97927.25;;;4.20;82.30
72677;BME280;60755;51.374;10.662;2024-03-07T02:35:32;97940.69;;;4.09;82.29
72677;BME280;60755;51.374;10.662;2024-03-07T02:38:01;97935.09;;;3.98;82.31
72677;BME280;60755;51.374;10.662;2024-03-07T02:40:30;97936.78;;;3.90;82.37
72677;BME280;60755;51.374;10.662;2024-03-07T02:42:58;97925.53;;;4.13;82.01
72677;BME280;60755;51.374;10.662;2024-03-07T02:45:25;97925.50;;;3.98;81.72
72677;BME280;60755;51.374;10.662;2024-03-07T02:47:52;97932.25;;;3.84;83.16
72677;BME280;60755;51.374;10.662;2024-03-07T02:50:19;97929.47;;;4.09;81.98
72677;BME280;60755;51.374;10.662;2024-03-07T02:52:48;97928.72;;;3.85;82.48
72677;BME280;60755;51.374;10.662;2024-03-07T02:55:18;97932.31;;;3.99;81.53
72677;BME280;60755;51.374;10.662;2024-03-07T02:57:47;97923.31;;;4.10;81.56
72677;BME280;60755;51.374;10.662;2024-03-07T03:00:14;97923.00;;;4.05;81.63
72677;BME280;60755;51.374;10.662;2024-03-07T03:02:46;97927.28;;;3.98;81.72
72677;BME280;60755;51.374;10.662;2024-03-07T03:05:14;97924.69;;;3.98;81.63
72677;BME280;60755;51.374;10.662;2024-03-07T03:07:42;97928.66;;;3.93;81.69
72677;BME280;60755;51.374;10.662;2024-03-07T03:10:12;97922.38;;;4.03;82.25
72677;BME280;60755;51.374;10.662;2024-03-07T03:12:41;97919.41;;;4.06;81.73
72677;BME280;60755;51.374;10.662;2024-03-07T03:15:10;97919.19;;;4.30;79.86
72677;BME280;60755;51.374;10.662;2024-03-07T03:17:37;97923.00;;;4.05;81.32
72677;BME280;60755;51.374;10.662;2024-03-07T03:20:05;97924.03;;;4.18;80.78
72677;BME280;60755;51.374;10.662;2024-03-07T03:22:40;97915.66;;;4.08;81.62
72677;BME280;60755;51.374;10.662;2024-03-07T03:25:09;97913.59;;;4.04;81.10
72677;BME280;60755;51.374;10.662;2024-03-07T03:27:37;97918.94;;;3.87;81.51
72677;BME280;60755;51.374;10.662;2024-03-07T03:30:06;97923.03;;;3.82;83.01
72677;BME280;60755;51.374;10.662;2024-03-07T03:32:40;97922.50;;;4.09;82.57
72677;BME280;60755;51.374;10.662;2024-03-07T03:35:08;97915.28;;;3.97;82.21
72677;BME280;60755;51.374;10.662;2024-03-07T03:37:39;97919.78;;;4.03;82.58
72677;BME280;60755;51.374;10.662;2024-03-07T03:40:08;97918.31;;;3.85;83.29
72677;BME280;60755;51.374;10.662;2024-03-07T03:42:36;97920.72;;;3.87;83.63
72677;BME280;60755;51.374;10.662;2024-03-07T03:45:04;97917.81;;;4.05;83.05
72677;BME280;60755;51.374;10.662;2024-03-07T03:47:33;97913.78;;;4.17;83.88
72677;BME280;60755;51.374;10.662;2024-03-07T03:50:03;97915.50;;;4.25;83.95
72677;BME280;60755;51.374;10.662;2024-03-07T03:52:31;97923.94;;;4.12;83.45
72677;BME280;60755;51.374;10.662;2024-03-07T03:54:58;97920.78;;;3.79;86.86
72677;BME280;60755;51.374;10.662;2024-03-07T03:57:26;97920.34;;;4.13;85.86
72677;BME280;60755;51.374;10.662;2024-03-07T03:59:53;97920.16;;;4.14;85.46
72677;BME280;60755;51.374;10.662;2024-03-07T04:02:20;97913.03;;;3.93;87.09
72677;BME280;60755;51.374;10.662;2024-03-07T04:04:47;97913.16;;;4.15;86.26
72677;BME280;60755;51.374;10.662;2024-03-07T04:07:16;97912.16;;;4.16;87.01
72677;BME280;60755;51.374;10.662;2024-03-07T04:09:43;97911.47;;;4.22;87.57
72677;BME280;60755;51.374;10.662;2024-03-07T04:12:10;97904.19;;;4.03;88.08
72677;BME280;60755;51.374;10.662;2024-03-07T04:14:39;97909.84;;;3.83;89.90
72677;BME280;60755;51.374;10.662;2024-03-07T04:17:06;97908.66;;;3.94;89.11
72677;BME280;60755;51.374;10.662;2024-03-07T04:19:34;97908.66;;;4.09;88.55
72677;BME280;60755;51.374;10.662;2024-03-07T04:22:02;97910.88;;;3.97;89.89
72677;BME280;60755;51.374;10.662;2024-03-07T04:24:31;97903.19;;;4.04;90.07
72677;BME280;60755;51.374;10.662;2024-03-07T04:26:59;97904.38;;;4.01;90.12
72677;BME280;60755;51.374;10.662;2024-03-07T04:29:26;97907.34;;;4.13;90.02
72677;BME280;60755;51.374;10.662;2024-03-07T04:31:53;97912.31;;;4.00;90.73
72677;BME280;60755;51.374;10.662;2024-03-07T04:34:20;97911.03;;;3.81;93.38
72677;BME280;60755;51.374;10.662;2024-03-07T04:36:47;97905.38;;;3.77;92.80
72677;BME280;60755;51.374;10.662;2024-03-07T04:39:14;97903.91;;;3.98;93.01
72677;BME280;60755;51.374;10.662;2024-03-07T04:41:52;97904.03;;;3.81;94.41
72677;BME280;60755;51.374;10.662;2024-03-07T04:44:19;97902.72;;;4.00;93.64
72677;BME280;60755;51.374;10.662;2024-03-07T04:46:48;97907.66;;;3.95;94.82
72677;BME280;60755;51.374;10.662;2024-03-07T04:49:16;97905.63;;;4.05;93.56
72677;BME280;60755;51.374;10.662;2024-03-07T04:51:43;97904.28;;;4.24;93.56
72677;BME280;60755;51.374;10.662;2024-03-07T04:54:10;97906.00;;;4.32;91.89
72677;BME280;60755;51.374;10.662;2024-03-07T04:56:37;97910.75;;;4.28;93.03
72677;BME280;60755;51.374;10.662;2024-03-07T04:59:05;97911.56;;;4.29;92.22
72677;BME280;60755;51.374;10.662;2024-03-07T05:01:32;97908.16;;;4.28;92.49
72677;BME280;60755;51.374;10.662;2024-03-07T05:03:59;97907.59;;;4.03;95.68
72677;BME280;60755;51.374;10.662;2024-03-07T05:06:28;97904.28;;;4.24;93.71
72677;BME280;60755;51.374;10.662;2024-03-07T05:08:59;97906.63;;;4.19;95.14
72677;BME280;60755;51.374;10.662;2024-03-07T05:11:27;97903.44;;;3.94;95.35
72677;BME280;60755;51.374;10.662;2024-03-07T05:13:54;97905.09;;;4.25;94.91
72677;BME280;60755;51.374;10.662;2024-03-07T05:16:23;97906.88;;;4.24;94.87
72677;BME280;60755;51.374;10.662;2024-03-07T05:18:50;97904.81;;;4.05;97.09
72677;BME280;60755;51.374;10.662;2024-03-07T05:21:17;97907.88;;;4.23;96.64
72677;BME280;60755;51.374;10.662;2024-03-07T05:24:01;97914.34;;;4.27;95.81
72677;BME280;60755;51.374;10.662;2024-03-07T05:26:30;97914.69;;;4.24;96.79
72677;BME280;60755;51.374;10.662;2024-03-07T05:29:01;97910.75;;;4.28;97.38
72677;BME280;60755;51.374;10.662;2024-03-07T05:31:32;97910.75;;;4.28;97.94
72677;BME280;60755;51.374;10.662;2024-03-07T05:34:01;97915.50;;;4.25;97.91
72677;BME280;60755;51.374;10.662;2024-03-07T05:36:30;97918.09;;;4.10;100.00
72677;BME280;60755;51.374;10.662;2024-03-07T05:38:58;97911.47;;;4.22;99.23
72677;BME280;60755;51.374;10.662;2024-03-07T05:41:25;97909.31;;;4.11;100.00
72677;BME280;60755;51.374;10.662;2024-03-07T05:43:55;97912.97;;;4.16;100.00
72677;BME280;60755;51.374;10.662;2024-03-07T05:46:22;97919.81;;;4.17;100.00
72677;BME280;60755;51.374;10.662;2024-03-07T05:48:51;97907.97;;;4.15;100.00
72677;BME280;60755;51.374;10.662;2024-03-07T05:51:22;97918.56;;;4.28;100.00
72677;BME280;60755;51.374;10.662;2024-03-07T05:53:50;97916.13;;;4.12;100.00
72677;BME280;60755;51.374;10.662;2024-03-07T05:56:17;97908.75;;;4.15;100.00
72677;BME280;60755;51.374;10.662;2024-03-07T05:58:44;97907.53;;;4.26;100.00
72677;BME280;60755;51.374;10.662;2024-03-07T06:01:11;97916.47;;;4.09;100.00
72677;BME280;60755;51.374;10.662;2024-03-07T06:03:39;97926.94;;;4.01;100.00
72677;BME280;60755;51.374;10.662;2024-03-07T06:06:07;97919.72;;;4.11;100.00
72677;BME280;60755;51.374;10.662;2024-03-07T06:08:37;97920.53;;;4.11;100.00
72677;BME280;60755;51.374;10.662;2024-03-07T06:11:04;97919.72;;;4.11;100.00
72677;BME280;60755;51.374;10.662;2024-03-07T06:13:31;97917.72;;;4.13;100.00
72677;BME280;60755;51.374;10.662;2024-03-07T06:15:58;97906.69;;;3.96;100.00
72677;BME280;60755;51.374;10.662;2024-03-07T06:18:27;97916.25;;;3.96;100.00
72677;BME280;60755;51.374;10.662;2024-03-07T06:20:57;97910.97;;;3.89;100.00
72677;BME280;60755;51.374;10.662;2024-03-07T06:23:25;97921.56;;;4.02;100.00
72677;BME280;60755;51.374;10.662;2024-03-07T06:25:54;97919.97;;;4.01;100.00
72677;BME280;60755;51.374;10.662;2024-03-07T06:28:24;97921.56;;;4.02;100.00
72677;BME280;60755;51.374;10.662;2024-03-07T06:30:51;97930.69;;;3.98;100.00
72677;BME280;60755;51.374;10.662;2024-03-07T06:33:18;97933.13;;;4.00;100.00
72677;BME280;60755;51.374;10.662;2024-03-07T06:35:45;97930.19;;;4.03;100.00
72677;BME280;60755;51.374;10.662;2024-03-07T06:38:12;97940.91;;;4.00;100.00
72677;BME280;60755;51.374;10.662;2024-03-07T06:40:41;97937.41;;;3.92;100.00
72677;BME280;60755;51.374;10.662;2024-03-07T06:43:09;97930.13;;;4.11;100.00
72677;BME280;60755;51.374;10.662;2024-03-07T06:45:36;97933.34;;;4.13;100.00
72677;BME280;60755;51.374;10.662;2024-03-07T06:48:04;97928.50;;;4.10;100.00
72677;BME280;60755;51.374;10.662;2024-03-07T06:50:32;97935.31;;;4.11;100.00
72677;BME280;60755;51.374;10.662;2024-03-07T06:53:00;97944.81;;;4.04;100.00
72677;BME280;60755;51.374;10.662;2024-03-07T06:55:27;97937.50;;;3.99;100.00
72677;BME280;60755;51.374;10.662;2024-03-07T06:57:56;97929.75;;;4.14;100.00
72677;BME280;60755;51.374;10.662;2024-03-07T07:00:23;97935.56;;;4.16;100.00
72677;BME280;60755;51.374;10.662;2024-03-07T07:02:52;97935.75;;;4.14;100.00
72677;BME280;60755;51.374;10.662;2024-03-07T07:05:20;97939.66;;;4.33;100.00
72677;BME280;60755;51.374;10.662;2024-03-07T07:07:47;97943.06;;;4.34;100.00
72677;BME280;60755;51.374;10.662;2024-03-07T07:10:14;97945.22;;;4.30;100.00
72677;BME280;60755;51.374;10.662;2024-03-07T07:12:44;97944.59;;;4.28;100.00
72677;BME280;60755;51.374;10.662;2024-03-07T07:15:14;97943.03;;;4.19;100.00
72677;BME280;60755;51.374;10.662;2024-03-07T07:17:43;97944.91;;;4.10;100.00
72677;BME280;60755;51.374;10.662;2024-03-07T07:20:12;97945.09;;;4.24;100.00
72677;BME280;60755;51.374;10.662;2024-03-07T07:22:40;97949.72;;;4.36;100.00
72677;BME280;60755;51.374;10.662;2024-03-07T07:25:08;97948.09;;;4.35;100.00
72677;BME280;60755;51.374;10.662;2024-03-07T07:27:40;97949.41;;;4.31;100.00
72677;BME280;60755;51.374;10.662;2024-03-07T07:30:09;97951.25;;;4.45;100.00
72677;BME280;60755;51.374;10.662;2024-03-07T07:32:38;97944.13;;;4.39;100.00
72677;BME280;60755;51.374;10.662;2024-03-07T07:35:06;97947.31;;;4.49;100.00
72677;BME280;60755;51.374;10.662;2024-03-07T07:37:37;97941.47;;;4.47;100.00
72677;BME280;60755;51.374;10.662;2024-03-07T07:40:05;97942.03;;;4.58;100.00
72677;BME280;60755;51.374;10.662;2024-03-07T07:42:35;97949.00;;;4.42;100.00
72677;BME280;60755;51.374;10.662;2024-03-07T07:45:06;97941.81;;;4.44;100.00
72677;BME280;60755;51.374;10.662;2024-03-07T07:47:38;97947.56;;;4.55;100.00
72677;BME280;60755;51.374;10.662;2024-03-07T07:50:08;97939.94;;;4.53;100.00
72677;BME280;60755;51.374;10.662;2024-03-07T07:52:42;97943.00;;;4.71;100.00
72677;BME280;60755;51.374;10.662;2024-03-07T07:55:10;97939.59;;;4.71;100.00
72677;BME280;60755;51.374;10.662;2024-03-07T07:57:43;97942.81;;;4.73;100.00
72677;BME280;60755;51.374;10.662;2024-03-07T08:00:12;97939.31;;;4.95;100.00
72677;BME280;60755;51.374;10.662;2024-03-07T08:02:50;97938.28;;;5.11;100.00
72677;BME280;60755;51.374;10.662;2024-03-07T08:05:18;97931.63;;;5.23;100.00
72677;BME280;60755;51.374;10.662;2024-03-07T08:07:45;97940.09;;;5.11;100.00
72677;BME280;60755;51.374;10.662;2024-03-07T08:10:14;97928.34;;;5.00;100.00
72677;BME280;60755;51.374;10.662;2024-03-07T08:12:41;97930.50;;;4.96;100.00
72677;BME280;60755;51.374;10.662;2024-03-07T08:15:09;97932.38;;;5.02;99.37
72677;BME280;60755;51.374;10.662;2024-03-07T08:17:40;97926.44;;;5.45;99.23
72677;BME280;60755;51.374;10.662;2024-03-07T08:20:12;97926.69;;;5.50;97.48
72677;BME280;60755;51.374;10.662;2024-03-07T08:22:40;97927.72;;;5.70;95.46
72677;BME280;60755;51.374;10.662;2024-03-07T08:25:08;97925.66;;;6.08;93.37
72677;BME280;60755;51.374;10.662;2024-03-07T08:27:36;97923.97;;;6.57;88.93
72677;BME280;60755;51.374;10.662;2024-03-07T08:30:05;97922.25;;;6.70;87.53
72677;BME280;60755;51.374;10.662;2024-03-07T08:32:33;97922.66;;;6.67;88.04
72677;BME280;60755;51.374;10.662;2024-03-07T08:35:03;97927.53;;;6.42;88.77
72677;BME280;60755;51.374;10.662;2024-03-07T08:37:35;97925.75;;;6.50;86.21
72677;BME280;60755;51.374;10.662;2024-03-07T08:40:06;97914.19;;;6.31;87.42
72677;BME280;60755;51.374;10.662;2024-03-07T08:42:36;97925.88;;;6.41;85.36
72677;BME280;60755;51.374;10.662;2024-03-07T08:45:04;97931.50;;;5.89;84.43
72677;BME280;60755;51.374;10.662;2024-03-07T08:47:31;97935.09;;;5.67;82.22
72677;BME280;60755;51.374;10.662;2024-03-07T08:49:59;97931.06;;;5.64;83.76
72677;BME280;60755;51.374;10.662;2024-03-07T08:52:26;97932.47;;;5.67;81.82
72677;BME280;60755;51.374;10.662;2024-03-07T08:54:55;97926.06;;;5.69;82.89
72677;BME280;60755;51.374;10.662;2024-03-07T08:57:22;97931.31;;;5.91;82.74
72677;BME280;60755;51.374;10.662;2024-03-07T08:59:49;97920.31;;;5.52;80.41
72677;BME280;60755;51.374;10.662;2024-03-07T09:02:16;97915.66;;;5.69;80.39
72677;BME280;60755;51.374;10.662;2024-03-07T09:04:43;97924.66;;;5.88;77.80
72677;BME280;60755;51.374;10.662;2024-03-07T09:07:10;97917.53;;;6.25;78.29
72677;BME280;60755;51.374;10.662;2024-03-07T09:09:38;97918.09;;;6.76;75.87
72677;BME280;60755;51.374;10.662;2024-03-07T09:12:08;97917.63;;;6.72;76.45
72677;BME280;60755;51.374;10.662;2024-03-07T09:14:35;97922.38;;;6.56;76.87
72677;BME280;60755;51.374;10.662;2024-03-07T09:17:03;97924.38;;;6.54;75.87
72677;BME280;60755;51.374;10.662;2024-03-07T09:19:30;97919.88;;;6.41;72.80
72677;BME280;60755;51.374;10.662;2024-03-07T09:21:57;97935.00;;;6.52;71.08
72677;BME280;60755;51.374;10.662;2024-03-07T09:24:25;97923.25;;;6.69;73.14
72677;BME280;60755;51.374;10.662;2024-03-07T09:26:53;97923.31;;;6.48;73.31
72677;BME280;60755;51.374;10.662;2024-03-07T09:29:23;97922.25;;;6.36;73.62
72677;BME280;60755;51.374;10.662;2024-03-07T09:31:51;97924.41;;;6.60;74.19
72677;BME280;60755;51.374;10.662;2024-03-07T09:34:19;97923.31;;;6.48;74.12
72677;BME280;60755;51.374;10.662;2024-03-07T09:36:47;97915.31;;;6.84;73.25
72677;BME280;60755;51.374;10.662;2024-03-07T09:39:14;97921.97;;;6.93;73.44
72677;BME280;60755;51.374;10.662;2024-03-07T09:41:41;97913.47;;;6.78;73.67
72677;BME280;60755;51.374;10.662;2024-03-07T09:44:09;97919.56;;;6.57;73.60
72677;BME280;60755;51.374;10.662;2024-03-07T09:46:40;97915.03;;;6.66;73.19
72677;BME280;60755;51.374;10.662;2024-03-07T09:49:10;97910.13;;;6.91;73.15
72677;BME280;60755;51.374;10.662;2024-03-07T09:51:38;97918.66;;;6.71;71.94
72677;BME280;60755;51.374;10.662;2024-03-07T09:54:05;97919.41;;;6.65;72.68
72677;BME280;60755;51.374;10.662;2024-03-07T09:56:34;97918.28;;;6.75;71.10
72677;BME280;60755;51.374;10.662;2024-03-07T09:59:03;97917.00;;;7.05;70.10
72677;BME280;60755;51.374;10.662;2024-03-07T10:01:33;97909.00;;;7.20;67.11
72677;BME280;60755;51.374;10.662;2024-03-07T10:04:05;97920.19;;;7.00;69.03
72677;BME280;60755;51.374;10.662;2024-03-07T10:06:37;97910.16;;;7.04;67.25
72677;BME280;60755;51.374;10.662;2024-03-07T10:09:05;97909.28;;;6.84;68.56
72677;BME280;60755;51.374;10.662;2024-03-07T10:11:32;97896.38;;;7.23;68.14
72677;BME280;60755;51.374;10.662;2024-03-07T10:13:59;97902.13;;;6.99;68.19
72677;BME280;60755;51.374;10.662;2024-03-07T10:16:26;97896.88;;;6.99;67.43
72677;BME280;60755;51.374;10.662;2024-03-07T10:18:53;97901.81;;;6.81;65.99
72677;BME280;60755;51.374;10.662;2024-03-07T10:21:22;97898.53;;;6.31;68.94
72677;BME280;60755;51.374;10.662;2024-03-07T10:23:50;97896.06;;;6.57;68.71
72677;BME280;60755;51.374;10.662;2024-03-07T10:26:18;97894.28;;;6.58;69.49
72677;BME280;60755;51.374;10.662;2024-03-07T10:28:45;97895.50;;;6.62;68.64
72677;BME280;60755;51.374;10.662;2024-03-07T10:31:27;97887.41;;;6.50;68.04
72677;BME280;60755;51.374;10.662;2024-03-07T10:33:58;97897.19;;;7.37;64.98
72677;BME280;60755;51.374;10.662;2024-03-07T10:36:27;97892.03;;;7.83;65.59
72677;BME280;60755;51.374;10.662;2024-03-07T10:38:56;97895.03;;;7.61;66.40
72677;BME280;60755;51.374;10.662;2024-03-07T10:41:44;97875.28;;;7.32;65.01
72677;BME280;60755;51.374;10.662;2024-03-07T10:44:18;97895.91;;;7.13;65.63
72677;BME280;60755;51.374;10.662;2024-03-07T10:46:51;97887.75;;;7.43;64.38
72677;BME280;60755;51.374;10.662;2024-03-07T10:49:20;97898.66;;;7.66;65.25
72677;BME280;60755;51.374;10.662;2024-03-07T10:52:00;97886.91;;;7.29;64.01
72677;BME280;60755;51.374;10.662;2024-03-07T10:54:34;97889.94;;;7.26;64.46
72677;BME280;60755;51.374;10.662;2024-03-07T10:57:16;97882.16;;;7.59;61.70
72677;BME280;60755;51.374;10.662;2024-03-07T10:59:50;97888.78;;;7.48;62.21
72677;BME280;60755;51.374;10.662;2024-03-07T11:02:24;97884.56;;;6.86;65.42
72677;BME280;60755;51.374;10.662;2024-03-07T11:04:54;97895.72;;;7.21;64.01
72677;BME280;60755;51.374;10.662;2024-03-07T11:07:23;97893.69;;;7.10;65.03
72677;BME280;60755;51.374;10.662;2024-03-07T11:09:51;97895.13;;;6.71;63.67
72677;BME280;60755;51.374;10.662;2024-03-07T11:12:23;97887.72;;;6.40;66.07
72677;BME280;60755;51.374;10.662;2024-03-07T11:14:51;97879.44;;;6.65;65.25
72677;BME280;60755;51.374;10.662;2024-03-07T11:17:20;97887.59;;;6.49;64.40
72677;BME280;60755;51.374;10.662;2024-03-07T11:19:48;97891.00;;;6.84;65.01
72677;BME280;60755;51.374;10.662;2024-03-07T11:22:29;97889.88;;;6.58;62.89
72677;BME280;60755;51.374;10.662;2024-03-07T11:25:01;97885.22;;;6.19;64.88
72677;BME280;60755;51.374;10.662;2024-03-07T11:27:33;97885.44;;;6.59;64.51
72677;BME280;60755;51.374;10.662;2024-03-07T11:30:05;97880.00;;;6.19;63.69
72677;BME280;60755;51.374;10.662;2024-03-07T11:32:35;97877.03;;;6.29;63.66
72677;BME280;60755;51.374;10.662;2024-03-07T11:35:04;97877.16;;;5.93;64.68
72677;BME280;60755;51.374;10.662;2024-03-07T11:37:41;97879.97;;;5.91;64.78
72677;BME280;60755;51.374;10.662;2024-03-07T11:40:12;97878.59;;;5.74;64.54
72677;BME280;60755;51.374;10.662;2024-03-07T11:42:46;97863.63;;;5.82;64.87
72677;BME280;60755;51.374;10.662;2024-03-07T11:45:14;97869.63;;;5.83;63.55
72677;BME280;60755;51.374;10.662;2024-03-07T11:47:51;97866.63;;;5.79;63.65
72677;BME280;60755;51.374;10.662;2024-03-07T11:50:23;97855.53;;;5.99;63.80
72677;BME280;60755;51.374;10.662;2024-03-07T11:52:53;97861.44;;;6.07;65.20
72677;BME280;60755;51.374;10.662;2024-03-07T11:55:20;97854.34;;;6.29;63.71
72677;BME280;60755;51.374;10.662;2024-03-07T11:57:48;97856.28;;;6.55;62.55
72677;BME280;60755;51.374;10.662;2024-03-07T12:00:17;97853.91;;;7.08;62.29
72677;BME280;60755;51.374;10.662;2024-03-07T12:02:44;97861.91;;;7.00;62.16
72677;BME280;60755;51.374;10.662;2024-03-07T12:05:14;97844.91;;;7.24;62.26
72677;BME280;60755;51.374;10.662;2024-03-07T12:07:42;97849.38;;;6.76;58.86
72677;BME280;60755;51.374;10.662;2024-03-07T12:10:11;97844.44;;;6.53;60.06
72677;BME280;60755;51.374;10.662;2024-03-07T12:12:38;97863.84;;;6.37;60.04
72677;BME280;60755;51.374;10.662;2024-03-07T12:15:06;97853.38;;;6.02;62.02
72677;BME280;60755;51.374;10.662;2024-03-07T12:17:41;97852.78;;;6.07;61.01
72677;BME280;60755;51.374;10.662;2024-03-07T12:20:09;97847.31;;;5.95;61.99
72677;BME280;60755;51.374;10.662;2024-03-07T12:22:50;97845.97;;;6.34;62.76
72677;BME280;60755;51.374;10.662;2024-03-07T12:25:20;97838.28;;;6.26;62.16
72677;BME280;60755;51.374;10.662;2024-03-07T12:27:59;97848.13;;;6.30;63.01
72677;BME280;60755;51.374;10.662;2024-03-07T12:30:29;97841.78;;;6.46;63.61
72677;BME280;60755;51.374;10.662;2024-03-07T12:33:01;97839.94;;;6.88;61.09
72677;BME280;60755;51.374;10.662;2024-03-07T12:35:30;97835.25;;;6.63;63.32
72677;BME280;60755;51.374;10.662;2024-03-07T12:37:58;97837.66;;;6.65;63.25
72677;BME280;60755;51.374;10.662;2024-03-07T12:40:27;97849.50;;;6.61;63.07
72677;BME280;60755;51.374;10.662;2024-03-07T12:42:59;97832.31;;;6.38;63.69
72677;BME280;60755;51.374;10.662;2024-03-07T12:45:28;97837.97;;;6.42;61.82
72677;BME280;60755;51.374;10.662;2024-03-07T12:47:57;97840.34;;;6.09;64.30
72677;BME280;60755;51.374;10.662;2024-03-07T12:50:29;97839.69;;;6.00;63.06
72677;BME280;60755;51.374;10.662;2024-03-07T12:53:00;97831.66;;;5.95;62.82
72677;BME280;60755;51.374;10.662;2024-03-07T12:55:32;97825.16;;;6.12;63.99
72677;BME280;60755;51.374;10.662;2024-03-07T12:58:00;97824.00;;;6.22;63.16
72677;BME280;60755;51.374;10.662;2024-03-07T13:00:28;97833.25;;;5.96;62.67
72677;BME280;60755;51.374;10.662;2024-03-07T13:02:55;97821.69;;;5.84;63.24
72677;BME280;60755;51.374;10.662;2024-03-07T13:05:23;97826.84;;;5.99;63.37